createdAt,value
2023-04-16T00:02:01.040Z,12.48
2023-04-16T00:04:28.059Z,14.70
2023-04-16T00:06:55.452Z,12.45
2023-04-16T00:09:22.378Z,12.50
2023-04-16T00:11:49.352Z,13.02
2023-04-16T00:14:16.156Z,12.27
2023-04-16T00:16:43.140Z,13.13
2023-04-16T00:19:10.229Z,12.77
2023-04-16T00:21:37.301Z,13.63
2023-04-16T00:24:04.115Z,13.85
2023-04-16T00:26:31.510Z,14.57
2023-04-16T00:28:58.669Z,14.45
2023-04-16T00:31:29.516Z,13.82
2023-04-16T00:33:57.062Z,14.90
2023-04-16T00:36:24.761Z,14.35
2023-04-16T00:38:51.669Z,13.13
2023-04-16T00:41:19.117Z,13.68
2023-04-16T00:43:46.639Z,14.77
2023-04-16T00:46:13.832Z,14.30
2023-04-16T00:48:41.337Z,14.68
2023-04-16T00:51:09.116Z,13.90
2023-04-16T00:53:36.328Z,17.58
2023-04-16T00:56:04.764Z,16.27
2023-04-16T00:58:32.789Z,15.80
2023-04-16T01:01:00.126Z,13.23
2023-04-16T01:03:36.694Z,14.02
2023-04-16T01:06:03.824Z,13.20
2023-04-16T01:08:30.644Z,11.68
2023-04-16T01:10:57.565Z,11.57
2023-04-16T01:13:24.394Z,11.35
2023-04-16T01:15:51.957Z,11.52
2023-04-16T01:18:20.822Z,11.38
2023-04-16T01:20:48.544Z,11.30
2023-04-16T01:23:16.067Z,11.85
2023-04-16T01:25:43.648Z,10.95
2023-04-16T01:28:10.787Z,10.88
2023-04-16T01:30:37.725Z,11.63
2023-04-16T01:33:13.915Z,11.35
2023-04-16T01:35:41.617Z,11.60
2023-04-16T01:38:09.234Z,11.70
2023-04-16T01:40:37.324Z,13.25
2023-04-16T01:43:04.533Z,13.30
2023-04-16T01:45:32.064Z,13.07
2023-04-16T01:47:59.032Z,13.75
2023-04-16T01:50:26.093Z,13.05
2023-04-16T01:52:53.024Z,13.02
2023-04-16T01:55:20.576Z,13.40
2023-04-16T01:57:47.522Z,14.13
2023-04-16T02:00:15.322Z,13.63
2023-04-16T02:02:45.544Z,13.85
2023-04-16T02:07:43.824Z,13.38
2023-04-16T02:10:10.688Z,14.43
2023-04-16T02:12:39.655Z,13.38
2023-04-16T02:15:07.228Z,14.00
2023-04-16T02:17:34.831Z,14.25
2023-04-16T02:20:10.284Z,15.45
2023-04-16T02:22:43.984Z,14.23
2023-04-16T02:25:14.482Z,15.07
2023-04-16T02:27:42.495Z,15.40
2023-04-16T02:30:29.150Z,15.73
2023-04-16T02:32:56.140Z,15.18
2023-04-16T02:35:23.199Z,17.15
2023-04-16T02:37:50.031Z,17.50
2023-04-16T02:40:17.135Z,16.52
2023-04-16T02:42:43.972Z,16.90
2023-04-16T02:45:11.774Z,16.40
2023-04-16T02:47:38.650Z,15.30
2023-04-16T02:50:06.360Z,15.80
2023-04-16T02:52:33.794Z,16.02
2023-04-16T02:55:00.932Z,15.88
2023-04-16T02:57:27.833Z,15.38
2023-04-16T02:59:54.609Z,16.42
2023-04-16T03:02:21.941Z,15.73
2023-04-16T03:04:48.894Z,15.18
2023-04-16T03:07:16.031Z,16.67
2023-04-16T03:09:42.948Z,15.88
2023-04-16T03:12:09.833Z,16.85
2023-04-16T03:14:36.630Z,16.80
2023-04-16T03:17:03.498Z,17.35
2023-04-16T03:19:30.493Z,16.95
2023-04-16T03:21:57.420Z,18.27
2023-04-16T03:24:24.382Z,17.42
2023-04-16T03:26:51.212Z,17.98
2023-04-16T03:29:21.190Z,17.35
2023-04-16T03:31:48.494Z,17.80
2023-04-16T03:34:16.025Z,18.02
2023-04-16T03:36:42.973Z,18.38
2023-04-16T03:39:10.047Z,18.65
2023-04-16T03:41:37.282Z,19.88
2023-04-16T03:44:04.109Z,18.60
2023-04-16T03:46:33.217Z,20.02
2023-04-16T03:49:00.486Z,24.60
2023-04-16T03:51:28.225Z,18.42
2023-04-16T03:53:56.292Z,21.27
2023-04-16T03:56:25.190Z,20.95
2023-04-16T03:58:53.011Z,21.40
2023-04-16T04:01:19.812Z,25.15
2023-04-16T04:03:47.285Z,25.95
2023-04-16T04:06:15.074Z,23.40
2023-04-16T04:08:42.042Z,27.35
2023-04-16T04:11:08.837Z,24.02
2023-04-16T04:13:36.506Z,25.85
2023-04-16T04:16:04.811Z,26.17
2023-04-16T04:18:32.381Z,27.40
2023-04-16T04:20:59.823Z,30.75
2023-04-16T04:23:31.067Z,24.27
2023-04-16T04:25:58.108Z,26.90
2023-04-16T04:28:25.074Z,28.58
2023-04-16T04:30:52.046Z,33.92
2023-04-16T04:33:19.183Z,33.70
2023-04-16T04:35:48.335Z,36.28
2023-04-16T04:38:19.822Z,40.50
2023-04-16T04:40:49.226Z,36.47
2023-04-16T04:43:18.329Z,35.22
2023-04-16T04:45:46.049Z,40.97
2023-04-16T04:48:13.699Z,39.67
2023-04-16T04:50:41.582Z,45.83
2023-04-16T04:53:12.160Z,44.67
2023-04-16T04:55:39.749Z,37.08
2023-04-16T04:58:07.199Z,31.35
2023-04-16T05:00:35.708Z,30.33
2023-04-16T05:03:04.245Z,31.23
2023-04-16T05:05:31.205Z,31.95
2023-04-16T05:07:58.051Z,28.75
2023-04-16T05:10:24.962Z,35.92
2023-04-16T05:12:52.136Z,33.67
2023-04-16T05:15:19.058Z,34.67
2023-04-16T05:17:46.094Z,35.65
2023-04-16T05:20:13.032Z,37.05
2023-04-16T05:22:39.922Z,40.80
2023-04-16T05:25:07.104Z,37.47
2023-04-16T05:27:33.909Z,31.20
2023-04-16T05:30:00.917Z,33.25
2023-04-16T05:32:27.989Z,30.20
2023-04-16T05:34:55.070Z,28.33
2023-04-16T05:37:21.857Z,30.58
2023-04-16T05:39:48.993Z,29.60
2023-04-16T05:42:15.829Z,30.67
2023-04-16T05:44:42.704Z,33.38
2023-04-16T05:47:09.596Z,30.23
2023-04-16T05:52:37.154Z,32.58
2023-04-16T05:55:04.370Z,23.83
2023-04-16T05:57:31.360Z,29.55
2023-04-16T05:59:58.090Z,29.40
2023-04-16T06:02:25.295Z,28.60
2023-04-16T06:04:52.182Z,29.75
2023-04-16T06:07:19.028Z,26.65
2023-04-16T06:09:45.913Z,26.90
2023-04-16T06:12:12.818Z,28.88
2023-04-16T06:14:39.692Z,31.63
2023-04-16T06:17:06.780Z,33.00
2023-04-16T06:19:33.623Z,33.33
2023-04-16T06:22:00.727Z,29.52
2023-04-16T06:24:27.552Z,30.98
2023-04-16T06:26:54.751Z,30.67
2023-04-16T06:29:25.871Z,32.47
2023-04-16T06:31:57.597Z,31.60
2023-04-16T06:34:24.571Z,27.58
2023-04-16T06:36:51.628Z,29.27
2023-04-16T06:39:18.797Z,34.30
2023-04-16T06:41:46.052Z,27.83
2023-04-16T06:44:12.922Z,32.55
2023-04-16T06:46:39.756Z,29.42
2023-04-16T06:49:07.456Z,32.88
2023-04-16T06:51:34.406Z,28.13
2023-04-16T06:54:01.422Z,26.92
2023-04-16T06:56:28.382Z,30.90
2023-04-16T06:58:57.207Z,29.85
2023-04-16T07:01:24.173Z,32.10
2023-04-16T07:03:51.404Z,28.30
2023-04-16T07:06:18.323Z,32.97
2023-04-16T07:08:45.432Z,29.50
2023-04-16T07:11:12.254Z,24.95
2023-04-16T07:13:39.192Z,31.33
2023-04-16T07:16:06.174Z,25.67
2023-04-16T07:18:33.126Z,27.23
2023-04-16T07:20:59.980Z,22.70
2023-04-16T07:23:26.799Z,17.92
2023-04-16T07:25:53.709Z,21.23
2023-04-16T07:28:20.855Z,18.05
2023-04-16T07:30:47.749Z,17.98
2023-04-16T07:33:14.535Z,15.73
2023-04-16T07:35:41.374Z,15.90
2023-04-16T07:38:08.265Z,14.13
2023-04-16T07:40:36.263Z,12.07
2023-04-16T07:43:03.326Z,11.20
2023-04-16T07:45:31.424Z,12.18
2023-04-16T07:47:58.375Z,11.88
2023-04-16T07:50:25.677Z,11.40
2023-04-16T07:52:52.573Z,9.77
2023-04-16T07:55:19.842Z,9.93
2023-04-16T07:57:46.762Z,10.55
2023-04-16T08:00:13.830Z,10.80
2023-04-16T08:02:41.552Z,11.07
2023-04-16T08:05:08.896Z,9.07
2023-04-16T08:07:35.926Z,9.20
2023-04-16T08:10:02.818Z,8.70
2023-04-16T08:12:30.004Z,7.93
2023-04-16T08:14:56.851Z,8.43
2023-04-16T08:17:23.733Z,9.75
2023-04-16T08:19:50.832Z,9.57
2023-04-16T08:22:20.970Z,9.60
2023-04-16T08:24:50.930Z,9.57
2023-04-16T08:27:20.007Z,7.13
2023-04-16T08:29:47.969Z,7.53
2023-04-16T08:32:14.970Z,6.93
2023-04-16T08:34:42.665Z,6.10
2023-04-16T08:37:10.208Z,5.95
2023-04-16T08:39:37.773Z,11.43
2023-04-16T08:42:06.220Z,6.95
2023-04-16T08:44:35.471Z,5.15
2023-04-16T08:47:03.018Z,4.97
2023-04-16T08:49:30.234Z,4.82
2023-04-16T08:51:57.207Z,4.18
2023-04-16T08:54:46.864Z,3.60
2023-04-16T08:57:24.390Z,4.95
2023-04-16T08:59:52.057Z,4.88
2023-04-16T09:02:19.345Z,3.55
2023-04-16T09:04:47.294Z,3.70
2023-04-16T09:07:15.029Z,4.13
2023-04-16T09:09:42.434Z,3.40
2023-04-16T09:12:09.723Z,3.42
2023-04-16T09:14:38.270Z,3.20
2023-04-16T09:17:06.557Z,2.75
2023-04-16T09:19:33.460Z,3.60
2023-04-16T09:22:00.490Z,3.05
2023-04-16T09:24:27.404Z,3.17
2023-04-16T09:26:55.017Z,4.32
2023-04-16T09:29:42.010Z,4.28
2023-04-16T09:32:11.104Z,3.70
2023-04-16T09:34:58.596Z,3.03
2023-04-16T09:37:27.167Z,3.40
2023-04-16T09:39:57.227Z,4.10
2023-04-16T09:42:27.184Z,4.28
2023-04-16T09:44:55.474Z,2.70
2023-04-16T09:47:25.830Z,3.03
2023-04-16T09:49:53.144Z,3.50
2023-04-16T09:52:23.545Z,4.35
2023-04-16T09:54:51.658Z,3.60
2023-04-16T09:57:21.074Z,4.97
2023-04-16T09:59:54.916Z,4.60
2023-04-16T10:02:23.367Z,4.05
2023-04-16T10:04:51.779Z,3.08
2023-04-16T10:07:19.280Z,4.10
2023-04-16T10:09:48.634Z,3.67
2023-04-16T10:12:16.224Z,3.42
2023-04-16T10:14:43.292Z,3.58
2023-04-16T10:17:10.372Z,3.15
2023-04-16T10:19:37.555Z,3.80
2023-04-16T10:22:04.935Z,2.85
2023-04-16T10:24:33.102Z,3.30
2023-04-16T10:27:00.504Z,3.58
2023-04-16T10:29:28.936Z,3.60
2023-04-16T10:31:56.873Z,3.45
2023-04-16T10:34:24.884Z,3.10
2023-04-16T10:36:53.095Z,3.78
2023-04-16T10:39:24.926Z,3.92
2023-04-16T10:44:19.656Z,4.72
2023-04-16T10:46:50.935Z,3.75
2023-04-16T10:49:24.738Z,4.35
2023-04-16T10:51:57.738Z,3.83
2023-04-16T10:54:31.602Z,4.10
2023-04-16T10:57:02.982Z,4.85
2023-04-16T10:59:33.762Z,4.40
2023-04-16T11:02:02.650Z,5.15
2023-04-16T11:04:34.403Z,4.57
2023-04-16T11:10:13.013Z,5.15
2023-04-16T11:12:47.449Z,4.45
2023-04-16T11:15:15.957Z,5.07
2023-04-16T11:17:51.776Z,5.15
2023-04-16T11:20:23.782Z,5.40
2023-04-16T11:25:23.228Z,5.72
2023-04-16T11:27:50.854Z,5.55
2023-04-16T11:30:18.282Z,5.47
2023-04-16T11:32:45.820Z,5.53
2023-04-16T11:35:17.565Z,5.00
2023-04-16T11:37:45.234Z,4.95
2023-04-16T11:40:13.076Z,5.07
2023-04-16T11:42:41.146Z,4.63
2023-04-16T11:45:09.653Z,5.40
2023-04-16T11:47:47.595Z,5.00
2023-04-16T11:50:23.305Z,5.28
2023-04-16T11:52:51.828Z,5.10
2023-04-16T11:55:19.618Z,5.70
2023-04-16T11:57:46.911Z,6.13
2023-04-16T12:00:14.750Z,5.45
2023-04-16T12:02:43.964Z,5.70
2023-04-16T12:05:35.197Z,5.38
2023-04-16T12:08:03.980Z,5.15
2023-04-16T12:10:35.162Z,5.30
2023-04-16T12:13:22.079Z,5.40
2023-04-16T12:15:51.154Z,5.50
2023-04-16T12:18:20.297Z,5.10
2023-04-16T12:20:47.780Z,5.50
2023-04-16T12:23:34.516Z,5.20
2023-04-16T12:26:12.295Z,5.95
2023-04-16T12:28:40.344Z,7.07
2023-04-16T12:31:07.349Z,6.75
2023-04-16T12:33:34.315Z,7.07
2023-04-16T12:36:01.903Z,5.45
2023-04-16T12:38:29.485Z,5.88
2023-04-16T12:40:57.811Z,7.70
2023-04-16T12:43:25.267Z,7.90
2023-04-16T12:45:52.203Z,9.57
2023-04-16T12:48:19.338Z,8.50
2023-04-16T12:50:46.618Z,8.98
2023-04-16T12:53:13.549Z,7.68
2023-04-16T12:55:40.335Z,9.13
2023-04-16T12:58:07.220Z,9.52
2023-04-16T13:00:34.056Z,8.82
2023-04-16T13:03:01.031Z,9.23
2023-04-16T13:05:28.186Z,9.73
2023-04-16T13:07:55.152Z,12.15
2023-04-16T13:10:23.509Z,10.25
2023-04-16T13:12:50.427Z,10.60
2023-04-16T13:15:17.202Z,9.23
2023-04-16T13:17:44.144Z,9.57
2023-04-16T13:20:11.221Z,9.48
2023-04-16T13:22:39.393Z,9.00
2023-04-16T13:25:06.977Z,9.20
2023-04-16T13:27:33.797Z,8.23
2023-04-16T13:30:01.019Z,8.23
2023-04-16T13:32:27.972Z,8.88
2023-04-16T13:34:54.898Z,8.32
2023-04-16T13:37:21.718Z,7.50
2023-04-16T13:39:48.588Z,8.23
2023-04-16T13:42:15.492Z,8.57
2023-04-16T13:44:42.733Z,8.45
2023-04-16T13:47:09.694Z,7.70
2023-04-16T13:49:36.631Z,8.68
2023-04-16T13:52:03.780Z,8.60
2023-04-16T13:54:30.908Z,8.82
2023-04-16T13:56:57.785Z,8.57
2023-04-16T13:59:24.683Z,9.60
2023-04-16T14:01:51.747Z,8.15
2023-04-16T14:04:18.891Z,8.18
2023-04-16T14:06:46.076Z,8.27
2023-04-16T14:09:13.129Z,9.45
2023-04-16T14:11:40.229Z,9.73
2023-04-16T14:14:07.175Z,9.38
2023-04-16T14:16:35.488Z,8.75
2023-04-16T14:19:02.911Z,10.20
2023-04-16T14:24:31.979Z,9.57
2023-04-16T14:26:58.911Z,9.45
2023-04-16T14:29:26.180Z,10.13
2023-04-16T14:40:58.070Z,11.02
2023-04-16T14:43:25.012Z,11.20
2023-04-16T14:45:52.868Z,11.07
2023-04-16T14:48:20.859Z,10.65
2023-04-16T14:50:47.745Z,10.43
2023-04-16T14:53:14.648Z,10.60
2023-04-16T14:55:41.540Z,11.00
2023-04-16T14:58:08.619Z,10.40
2023-04-16T15:00:35.737Z,10.25
2023-04-16T15:03:03.872Z,11.77
2023-04-16T15:05:31.992Z,11.35
2023-04-16T15:07:59.000Z,10.43
2023-04-16T15:10:25.926Z,10.18
2023-04-16T15:12:52.772Z,13.70
2023-04-16T15:15:19.803Z,11.32
2023-04-16T15:17:46.922Z,10.30
2023-04-16T15:20:14.129Z,11.00
2023-04-16T15:22:41.101Z,10.98
2023-04-16T15:25:08.629Z,11.05
2023-04-16T15:27:36.514Z,11.02
2023-04-16T15:30:03.664Z,9.70
2023-04-16T15:32:31.249Z,10.05
2023-04-16T15:34:58.184Z,9.18
2023-04-16T15:37:25.050Z,8.52
2023-04-16T15:39:51.847Z,9.45
2023-04-16T15:42:18.702Z,10.20
2023-04-16T15:44:45.608Z,9.60
2023-04-16T15:47:12.413Z,9.23
2023-04-16T15:49:39.333Z,9.70
2023-04-16T15:52:06.324Z,9.75
2023-04-16T15:54:33.209Z,9.25
2023-04-16T15:57:00.126Z,9.73
2023-04-16T15:59:27.109Z,9.57
2023-04-16T16:01:53.985Z,11.05
2023-04-16T16:04:26.427Z,16.25
2023-04-16T16:06:54.312Z,10.75
2023-04-16T16:09:26.184Z,9.73
2023-04-16T16:14:22.860Z,9.77
2023-04-16T16:16:50.064Z,10.43
2023-04-16T16:19:17.610Z,11.15
2023-04-16T16:21:44.467Z,10.18
2023-04-16T16:24:11.508Z,12.30
2023-04-16T16:26:38.289Z,11.07
2023-04-16T16:29:05.746Z,11.93
2023-04-16T16:31:32.709Z,12.35
2023-04-16T16:33:59.792Z,11.32
2023-04-16T16:36:27.471Z,11.88
2023-04-16T16:38:55.253Z,13.63
2023-04-16T16:41:22.615Z,13.98
2023-04-16T16:43:50.368Z,13.02
2023-04-16T16:46:17.232Z,17.05
2023-04-16T16:48:44.129Z,17.98
2023-04-16T16:51:12.578Z,19.35
2023-04-16T16:53:39.940Z,16.73
2023-04-16T16:56:06.802Z,21.67
2023-04-16T16:58:33.607Z,21.92
2023-04-16T17:01:00.633Z,15.88
2023-04-16T17:03:27.596Z,19.38
2023-04-16T17:05:56.606Z,13.27
2023-04-16T17:08:23.889Z,16.05
2023-04-16T17:10:51.456Z,13.85
2023-04-16T17:13:21.527Z,14.30
2023-04-16T17:15:48.432Z,13.50
2023-04-16T17:18:16.210Z,10.95
2023-04-16T17:20:43.077Z,11.93
2023-04-16T17:23:10.462Z,13.38
2023-04-16T17:25:37.339Z,12.52
2023-04-16T17:28:05.131Z,12.30
2023-04-16T17:30:32.375Z,13.32
2023-04-16T17:33:00.109Z,15.05
2023-04-16T17:35:27.510Z,15.23
2023-04-16T17:37:54.392Z,14.50
2023-04-16T17:40:21.255Z,14.05
2023-04-16T17:42:49.220Z,14.80
2023-04-16T17:45:16.967Z,16.90
2023-04-16T17:47:46.898Z,15.95
2023-04-16T17:50:16.810Z,20.85
2023-04-16T17:52:43.763Z,20.17
2023-04-16T17:55:11.935Z,29.98
2023-04-16T17:57:38.880Z,35.03
2023-04-16T18:00:12.724Z,28.45
2023-04-16T18:02:41.270Z,34.97
2023-04-16T18:05:08.896Z,25.25
2023-04-16T18:07:36.538Z,24.58
2023-04-16T18:10:08.633Z,24.75
2023-04-16T18:12:36.286Z,23.33
2023-04-16T18:15:03.636Z,34.58
2023-04-16T18:17:30.618Z,22.25
2023-04-16T18:19:58.265Z,20.23
2023-04-16T18:22:27.388Z,20.75
2023-04-16T18:24:54.983Z,21.05
2023-04-16T18:27:22.092Z,21.70
2023-04-16T18:29:49.485Z,19.48
2023-04-16T18:32:16.797Z,20.00
2023-04-16T18:34:44.254Z,22.20
2023-04-16T18:37:11.344Z,20.48
2023-04-16T18:39:38.230Z,26.58
2023-04-16T18:42:05.321Z,26.35
2023-04-16T18:44:32.232Z,24.10
2023-04-16T18:46:59.153Z,24.10
2023-04-16T18:49:26.201Z,23.00
2023-04-16T18:51:55.986Z,19.92
2023-04-16T18:54:23.111Z,22.42
2023-04-16T18:56:50.072Z,30.58
2023-04-16T18:59:16.891Z,36.88
2023-04-16T19:01:43.965Z,49.72
2023-04-16T19:04:10.936Z,35.13
2023-04-16T19:06:38.487Z,38.17
2023-04-16T19:09:05.832Z,38.88
2023-04-16T19:11:36.444Z,37.15
2023-04-16T19:14:06.041Z,28.90
2023-04-16T19:16:36.431Z,34.45
2023-04-16T19:19:05.548Z,29.33
2023-04-16T19:21:33.218Z,25.38
2023-04-16T19:24:02.687Z,20.67
2023-04-16T19:26:30.832Z,21.10
2023-04-16T19:29:00.367Z,19.70
2023-04-16T19:31:40.295Z,18.85
2023-04-16T19:34:10.099Z,20.63
2023-04-16T19:36:41.953Z,20.70
2023-04-16T19:39:16.958Z,16.60
2023-04-16T19:41:51.143Z,16.80
2023-04-16T19:44:24.475Z,15.27
2023-04-16T19:46:56.721Z,16.58
2023-04-16T19:49:36.107Z,16.02
2023-04-16T19:54:36.117Z,14.00
2023-04-16T19:59:41.647Z,15.25
2023-04-16T20:02:15.322Z,14.80
2023-04-16T20:04:56.325Z,14.57
2023-04-16T20:07:27.494Z,13.93
2023-04-16T20:10:00.654Z,14.25
2023-04-16T20:12:31.158Z,12.45
2023-04-16T20:15:01.698Z,11.63
2023-04-16T20:17:31.703Z,11.88
2023-04-16T20:20:01.095Z,12.27
2023-04-16T20:22:28.177Z,13.00
2023-04-16T20:24:55.165Z,12.10
2023-04-16T20:27:22.088Z,10.50
2023-04-16T20:29:48.926Z,9.13
2023-04-16T20:32:15.901Z,9.05
2023-04-16T20:34:42.996Z,8.50
2023-04-16T20:37:09.839Z,8.85
2023-04-16T20:39:37.005Z,8.13
2023-04-16T20:42:04.414Z,8.68
2023-04-16T20:44:40.526Z,7.90
2023-04-16T20:47:08.822Z,7.10
2023-04-16T20:49:35.820Z,7.13
2023-04-16T20:52:02.879Z,6.70
2023-04-16T20:54:30.460Z,6.40
2023-04-16T20:56:57.844Z,7.35
2023-04-16T20:59:25.405Z,7.30
2023-04-16T21:01:52.472Z,6.63
2023-04-16T21:04:19.577Z,6.40
2023-04-16T21:06:47.040Z,6.13
2023-04-16T21:09:13.828Z,6.38
2023-04-16T21:11:40.849Z,6.30
2023-04-16T21:14:07.673Z,6.35
2023-04-16T21:16:34.585Z,6.38
2023-04-16T21:19:01.520Z,6.03
2023-04-16T21:21:28.415Z,6.82
2023-04-16T21:23:55.563Z,6.80
2023-04-16T21:26:22.499Z,7.05
2023-04-16T21:28:49.365Z,6.82
2023-04-16T21:31:16.488Z,6.75
2023-04-16T21:33:43.483Z,6.75
2023-04-16T21:36:10.873Z,7.68
2023-04-16T21:38:37.878Z,7.68
2023-04-16T21:41:04.783Z,7.97
2023-04-16T21:43:32.227Z,8.48
2023-04-16T21:45:59.622Z,7.72
2023-04-16T21:48:28.451Z,7.32
2023-04-16T21:51:00.147Z,6.97
2023-04-16T21:53:28.179Z,7.47
2023-04-16T21:55:55.047Z,7.95
2023-04-16T21:58:21.864Z,7.63
2023-04-16T22:00:48.769Z,8.18
2023-04-16T22:03:17.437Z,6.75
2023-04-16T22:05:45.953Z,8.15
2023-04-16T22:08:23.892Z,8.18
2023-04-16T22:10:51.712Z,7.55
2023-04-16T22:13:18.608Z,7.93
2023-04-16T22:15:45.483Z,8.35
2023-04-16T22:18:12.458Z,8.85
2023-04-16T22:20:39.896Z,8.52
2023-04-16T22:23:07.359Z,9.10
2023-04-16T22:25:34.178Z,9.10
2023-04-16T22:28:01.684Z,8.73
2023-04-16T22:30:28.587Z,8.63
2023-04-16T22:32:55.528Z,8.95
2023-04-16T22:35:22.448Z,7.97
2023-04-16T22:37:49.310Z,8.98
2023-04-16T22:40:16.698Z,8.68
2023-04-16T22:42:43.598Z,9.00
2023-04-16T22:45:11.120Z,9.85
2023-04-16T22:47:38.034Z,9.38
2023-04-16T22:50:06.347Z,9.20
2023-04-16T22:52:33.154Z,10.32
2023-04-16T22:55:00.004Z,9.93
2023-04-16T22:57:26.817Z,8.55
2023-04-16T22:59:53.786Z,9.25
2023-04-16T23:02:21.199Z,10.93
2023-04-16T23:04:48.167Z,9.13
2023-04-16T23:07:16.309Z,9.48
2023-04-16T23:09:43.057Z,9.07
2023-04-16T23:12:09.945Z,9.15
2023-04-16T23:14:37.078Z,9.32
2023-04-16T23:17:03.948Z,9.15
2023-04-16T23:19:31.764Z,8.88
2023-04-16T23:21:58.875Z,8.88
2023-04-16T23:24:25.678Z,9.82
2023-04-16T23:26:52.809Z,8.82
2023-04-16T23:29:20.720Z,9.38
2023-04-16T23:31:47.944Z,8.85
2023-04-16T23:34:14.858Z,8.38
2023-04-16T23:36:41.810Z,8.68
2023-04-16T23:39:08.918Z,8.43
2023-04-16T23:41:35.757Z,8.27
2023-04-16T23:44:02.866Z,8.35
2023-04-16T23:46:29.775Z,8.15
2023-04-16T23:48:56.791Z,7.82
2023-04-16T23:51:23.566Z,8.45
2023-04-16T23:53:50.353Z,7.68
2023-04-16T23:56:17.390Z,7.82
2023-04-16T23:58:44.235Z,7.15
